< < Back
Terminal Aerodrome Forecast


Current Version              Previous Versions:   1  2  3  4  5  6  7  8  9  

Terminal Aerodrome Forecast

690
FTUS42 KTAE 281046 AAB
TAFTLH
TAF AMD
KTLH 281046Z 2811/2906 07005KT P6SM SCT025 SCT250
      TEMPO 2811/2814 BKN008
     FM281600 06008KT P6SM VCTS BKN050CB
     FM290000 08006KT P6SM SCT250=



Latest METAR

451
SAUS80 KWBC 290500 CCA
MTRTLH
METAR KTLH 290453Z AUTO 08008KT 10SM CLR 28/23 A3000 RMK AO2 SLP158
T02780228 403560261


USA.gov is the U.S. government's official web portal to all federal, state and local government web resources and services.